createdAt,value
2022-11-03T00:01:13.533Z,93.45
2022-11-03T00:03:41.229Z,93.68
2022-11-03T00:06:09.184Z,93.58
2022-11-03T00:08:38.860Z,93.59
2022-11-03T00:11:11.245Z,93.20
2022-11-03T00:13:40.545Z,93.64
2022-11-03T00:16:09.263Z,93.93
2022-11-03T00:18:38.770Z,94.15
2022-11-03T00:21:08.825Z,94.14
2022-11-03T00:23:37.795Z,94.22
2022-11-03T00:26:10.027Z,94.29
2022-11-03T00:28:38.125Z,93.99
2022-11-03T00:31:09.627Z,94.37
2022-11-03T00:33:39.544Z,94.30
2022-11-03T00:36:08.103Z,94.58
2022-11-03T00:38:35.865Z,94.58
2022-11-03T00:41:04.606Z,94.88
2022-11-03T00:43:33.704Z,94.79
2022-11-03T00:46:01.617Z,94.62
2022-11-03T00:48:32.389Z,94.92
2022-11-03T00:51:06.857Z,94.78
2022-11-03T00:53:36.306Z,94.95
2022-11-03T00:56:04.852Z,94.79
2022-11-03T00:58:33.333Z,95.05
2022-11-03T01:01:07.428Z,95.02
2022-11-03T01:03:37.190Z,95.09
2022-11-03T01:06:26.780Z,95.13
2022-11-03T01:08:54.362Z,95.06
2022-11-03T01:11:41.371Z,94.96
2022-11-03T01:14:09.803Z,95.03
2022-11-03T01:16:37.355Z,95.01
2022-11-03T01:19:05.166Z,95.12
2022-11-03T01:21:33.931Z,95.07
2022-11-03T01:24:02.536Z,95.29
2022-11-03T01:26:31.471Z,95.42
2022-11-03T01:29:00.930Z,95.69
2022-11-03T01:31:29.349Z,95.71
2022-11-03T01:33:57.867Z,95.50
2022-11-03T01:36:26.446Z,95.43
2022-11-03T01:38:56.680Z,95.46
2022-11-03T01:41:26.131Z,95.76
2022-11-03T01:44:28.780Z,95.86
2022-11-03T01:47:02.566Z,95.91
2022-11-03T01:49:34.497Z,96.05
2022-11-03T01:52:07.569Z,96.39
2022-11-03T01:54:37.618Z,96.92
2022-11-03T01:57:08.463Z,97.13
2022-11-03T01:59:37.539Z,97.09
2022-11-03T02:02:05.454Z,97.06
2022-11-03T02:04:35.368Z,97.24
2022-11-03T02:07:13.372Z,97.44
2022-11-03T02:09:40.798Z,97.77
2022-11-03T02:12:09.827Z,97.75
2022-11-03T02:14:43.806Z,97.74
2022-11-03T02:17:14.049Z,97.58
2022-11-03T02:19:45.403Z,97.74
2022-11-03T02:22:27.974Z,98.16
2022-11-03T02:25:03.656Z,98.55
2022-11-03T02:27:32.568Z,99.04
2022-11-03T02:30:00.039Z,99.01
2022-11-03T02:32:31.209Z,98.96
2022-11-03T02:35:06.614Z,99.74
2022-11-03T02:37:38.117Z,99.59
2022-11-03T02:40:11.014Z,100.00
2022-11-03T02:42:43.411Z,100.00
2022-11-03T02:45:16.411Z,99.94
2022-11-03T02:47:46.158Z,99.65
2022-11-03T02:50:13.663Z,99.75
2022-11-03T02:52:43.044Z,99.62
2022-11-03T02:55:16.067Z,99.97
2022-11-03T02:57:50.619Z,100.00
2022-11-03T03:00:18.416Z,100.00
2022-11-03T03:02:53.794Z,100.00
2022-11-03T03:05:27.473Z,100.00
2022-11-03T03:07:59.922Z,100.00
2022-11-03T03:10:31.078Z,100.00
2022-11-03T03:13:02.262Z,99.95
2022-11-03T03:15:46.150Z,99.41
2022-11-03T03:18:20.438Z,99.41
2022-11-03T03:20:55.809Z,99.52
2022-11-03T03:23:26.205Z,99.57
2022-11-03T03:26:00.817Z,99.25
2022-11-03T03:28:36.256Z,99.24
2022-11-03T03:31:08.378Z,98.94
2022-11-03T03:33:36.592Z,98.76
2022-11-03T03:36:09.121Z,98.90
2022-11-03T03:38:41.091Z,98.95
2022-11-03T03:41:12.200Z,99.37
2022-11-03T03:43:42.736Z,99.21
2022-11-03T03:46:13.000Z,99.66
2022-11-03T03:48:40.727Z,99.21
2022-11-03T03:51:08.517Z,99.14
2022-11-03T03:53:35.967Z,99.32
2022-11-03T03:56:05.568Z,99.23
2022-11-03T03:58:33.017Z,99.46
2022-11-03T04:01:01.815Z,99.52
2022-11-03T04:03:30.273Z,99.68
2022-11-03T04:05:57.686Z,99.49
2022-11-03T04:08:25.133Z,99.64
2022-11-03T04:11:10.302Z,99.33
2022-11-03T04:13:55.676Z,99.58
2022-11-03T04:16:42.031Z,99.44
2022-11-03T04:19:29.361Z,99.26
2022-11-03T04:22:14.716Z,99.05
2022-11-03T04:24:42.136Z,98.96
2022-11-03T04:27:26.134Z,98.84
2022-11-03T04:29:53.701Z,98.71
2022-11-03T04:32:22.482Z,98.56
2022-11-03T04:34:50.093Z,98.34
2022-11-03T04:37:18.045Z,97.87
2022-11-03T04:39:45.514Z,97.66
2022-11-03T04:42:18.111Z,97.56
2022-11-03T04:44:45.574Z,97.01
2022-11-03T04:47:17.217Z,97.18
2022-11-03T04:49:48.880Z,97.00
2022-11-03T04:52:19.741Z,97.24
2022-11-03T04:54:49.670Z,97.06
2022-11-03T04:57:18.920Z,96.97
2022-11-03T04:59:49.409Z,97.38
2022-11-03T05:02:21.739Z,97.46
2022-11-03T05:04:50.493Z,98.10
2022-11-03T05:07:25.911Z,98.28
2022-11-03T05:09:53.451Z,98.43
2022-11-03T05:12:22.413Z,98.92
2022-11-03T05:14:54.194Z,98.97
2022-11-03T05:17:28.235Z,99.03
2022-11-03T05:20:00.938Z,99.19
2022-11-03T05:22:34.757Z,99.37
2022-11-03T05:25:07.410Z,99.38
2022-11-03T05:27:34.870Z,99.42
2022-11-03T05:30:02.921Z,99.73
2022-11-03T05:32:34.282Z,99.80
2022-11-03T05:35:04.055Z,99.96
2022-11-03T05:37:33.974Z,100.00
2022-11-03T05:40:04.916Z,100.00
2022-11-03T05:42:36.845Z,100.00
2022-11-03T05:45:13.005Z,100.00
2022-11-03T05:47:40.934Z,100.00
2022-11-03T05:50:19.684Z,100.00
2022-11-03T05:52:48.818Z,100.00
2022-11-03T05:55:26.361Z,100.00
2022-11-03T05:57:56.400Z,100.00
2022-11-03T06:00:30.092Z,100.00
2022-11-03T06:02:58.897Z,100.00
2022-11-03T06:05:27.990Z,100.00
2022-11-03T06:07:57.082Z,100.00
2022-11-03T06:10:26.826Z,100.00
2022-11-03T06:12:57.365Z,100.00
2022-11-03T06:15:31.925Z,100.00
2022-11-03T06:18:00.561Z,100.00
2022-11-03T06:20:29.755Z,100.00
2022-11-03T06:22:57.539Z,99.62
2022-11-03T06:25:29.025Z,99.89
2022-11-03T06:28:00.598Z,99.83
2022-11-03T06:30:30.694Z,100.00
2022-11-03T06:33:01.196Z,100.00
2022-11-03T06:35:30.003Z,100.00
2022-11-03T06:37:57.734Z,100.00
2022-11-03T06:40:35.004Z,100.00
2022-11-03T06:43:14.594Z,100.00
2022-11-03T06:45:49.627Z,100.00
2022-11-03T06:48:23.854Z,100.00
2022-11-03T06:50:53.384Z,100.00
2022-11-03T06:53:24.282Z,100.00
2022-11-03T06:55:51.900Z,100.00
2022-11-03T06:58:28.003Z,100.00
2022-11-03T07:01:02.826Z,100.00
2022-11-03T07:03:33.439Z,100.00
2022-11-03T07:06:13.254Z,100.00
2022-11-03T07:08:43.127Z,100.00
2022-11-03T07:11:15.526Z,100.00
2022-11-03T07:14:03.597Z,100.00
2022-11-03T07:16:34.772Z,100.00
2022-11-03T07:19:04.455Z,100.00
2022-11-03T07:21:37.282Z,100.00
2022-11-03T07:24:17.051Z,100.00
2022-11-03T07:26:44.739Z,100.00
2022-11-03T07:29:20.209Z,100.00
2022-11-03T07:31:48.035Z,99.99
2022-11-03T07:34:22.759Z,100.00
2022-11-03T07:36:55.707Z,99.73
2022-11-03T07:39:23.729Z,99.90
2022-11-03T07:41:51.973Z,99.39
2022-11-03T07:44:21.568Z,99.42
2022-11-03T07:46:50.802Z,99.25
2022-11-03T07:49:27.105Z,99.09
2022-11-03T07:51:57.284Z,98.61
2022-11-03T07:54:28.790Z,98.58
2022-11-03T07:56:58.374Z,98.54
2022-11-03T07:59:31.845Z,98.01
2022-11-03T08:02:00.051Z,98.49
2022-11-03T08:04:30.116Z,97.96
2022-11-03T08:06:58.880Z,97.83
2022-11-03T08:09:26.993Z,97.38
2022-11-03T08:11:54.428Z,97.16
2022-11-03T08:14:21.935Z,96.87
2022-11-03T08:16:49.380Z,96.67
2022-11-03T08:19:16.858Z,96.47
2022-11-03T08:21:44.257Z,96.33
2022-11-03T08:24:13.002Z,96.30
2022-11-03T08:26:40.469Z,95.72
2022-11-03T08:29:07.967Z,95.51
2022-11-03T08:31:35.406Z,95.18
2022-11-03T08:34:02.830Z,95.30
2022-11-03T08:36:30.255Z,94.95
2022-11-03T08:38:57.743Z,94.81
2022-11-03T08:41:26.536Z,94.16
2022-11-03T08:43:54.362Z,94.17
2022-11-03T08:46:21.815Z,93.89
2022-11-03T08:48:50.251Z,93.46
2022-11-03T08:51:17.746Z,93.46
2022-11-03T08:53:46.238Z,92.55
2022-11-03T08:56:15.898Z,92.58
2022-11-03T08:58:46.020Z,91.48
2022-11-03T09:01:13.995Z,91.18
2022-11-03T09:03:41.665Z,90.93
2022-11-03T09:06:09.749Z,90.54
2022-11-03T09:11:24.640Z,90.24
2022-11-03T09:13:53.512Z,89.63
2022-11-03T09:16:20.964Z,89.94
2022-11-03T09:18:48.393Z,89.60
2022-11-03T09:21:15.835Z,89.24
2022-11-03T09:23:43.294Z,88.87
2022-11-03T09:26:10.726Z,88.46
2022-11-03T09:28:38.164Z,88.82
2022-11-03T09:31:07.569Z,88.67
2022-11-03T09:33:34.989Z,88.56
2022-11-03T09:36:02.634Z,88.58
2022-11-03T09:38:30.109Z,88.30
2022-11-03T09:40:57.688Z,88.27
2022-11-03T09:43:25.154Z,87.68
2022-11-03T09:45:53.894Z,87.55
2022-11-03T09:48:22.706Z,87.17
2022-11-03T09:50:53.995Z,87.06
2022-11-03T09:53:22.264Z,86.70
2022-11-03T09:55:49.752Z,86.59
2022-11-03T09:58:18.873Z,86.63
2022-11-03T10:00:46.963Z,86.74
2022-11-03T10:03:16.891Z,86.57
2022-11-03T10:05:47.034Z,86.72
2022-11-03T10:08:23.361Z,87.26
2022-11-03T10:10:51.103Z,87.08
2022-11-03T10:13:25.104Z,86.92
2022-11-03T10:15:52.593Z,86.35
2022-11-03T10:18:20.411Z,86.62
2022-11-03T10:20:49.239Z,86.92
2022-11-03T10:23:16.702Z,86.88
2022-11-03T10:25:45.648Z,86.15
2022-11-03T10:28:19.801Z,86.57
2022-11-03T10:33:41.581Z,86.00
2022-11-03T10:36:25.821Z,85.98
2022-11-03T10:38:53.908Z,86.29
2022-11-03T10:41:23.364Z,86.07
2022-11-03T10:44:02.153Z,85.75
2022-11-03T10:46:49.204Z,85.97
2022-11-03T10:49:19.452Z,85.51
2022-11-03T10:51:51.193Z,85.52
2022-11-03T10:54:20.753Z,85.71
2022-11-03T10:56:49.405Z,85.30
2022-11-03T10:59:19.289Z,85.54
2022-11-03T11:01:47.010Z,85.16
2022-11-03T11:04:16.551Z,84.90
2022-11-03T11:06:44.257Z,84.81
2022-11-03T11:09:15.577Z,84.28
2022-11-03T11:12:02.341Z,84.37
2022-11-03T11:14:39.192Z,83.86
2022-11-03T11:17:06.940Z,83.59
2022-11-03T11:20:21.863Z,83.31
2022-11-03T11:22:50.452Z,82.87
2022-11-03T11:25:20.142Z,81.91
2022-11-03T11:27:58.901Z,81.90
2022-11-03T11:31:02.709Z,81.48
2022-11-03T11:33:32.968Z,81.12
2022-11-03T11:36:29.377Z,80.96
2022-11-03T11:38:58.411Z,81.64
2022-11-03T11:42:03.262Z,81.16
2022-11-03T11:45:06.053Z,81.23
2022-11-03T11:47:36.477Z,80.99
2022-11-03T11:50:16.212Z,81.46
2022-11-03T11:52:47.167Z,81.29
2022-11-03T11:55:19.825Z,81.67
2022-11-03T11:57:48.406Z,81.82
2022-11-03T12:00:23.816Z,81.73
2022-11-03T12:02:52.337Z,81.92
2022-11-03T12:05:22.119Z,80.63
2022-11-03T12:07:49.726Z,80.78
2022-11-03T12:10:18.730Z,79.49
2022-11-03T12:12:46.906Z,80.47
2022-11-03T12:15:50.784Z,79.81
2022-11-03T12:18:39.910Z,80.41
2022-11-03T12:21:10.666Z,80.06
2022-11-03T12:23:43.010Z,79.69
2022-11-03T12:26:18.733Z,79.78
2022-11-03T12:28:46.449Z,80.43
2022-11-03T12:31:15.209Z,79.76
2022-11-03T12:33:42.650Z,79.79
2022-11-03T12:36:10.414Z,79.77
2022-11-03T12:38:37.942Z,80.05
2022-11-03T12:41:19.516Z,80.23
2022-11-03T12:43:47.156Z,79.84
2022-11-03T12:46:16.417Z,80.18
2022-11-03T12:48:44.687Z,80.44
2022-11-03T12:51:13.719Z,80.07
2022-11-03T12:53:41.974Z,80.40
2022-11-03T12:56:10.502Z,80.36
2022-11-03T12:58:38.476Z,80.06
2022-11-03T13:01:07.031Z,80.02
2022-11-03T13:03:37.181Z,80.33
2022-11-03T13:06:10.302Z,79.36
2022-11-03T13:08:38.228Z,79.05
2022-11-03T13:11:26.048Z,79.54
2022-11-03T13:13:53.599Z,79.24
2022-11-03T13:16:21.865Z,79.12
2022-11-03T13:18:50.670Z,79.15
2022-11-03T13:21:18.718Z,80.16
2022-11-03T13:23:46.158Z,79.67
2022-11-03T13:26:13.793Z,78.81
2022-11-03T13:28:41.485Z,79.17
2022-11-03T13:31:09.139Z,78.40
2022-11-03T13:33:36.594Z,79.04
2022-11-03T13:36:06.175Z,78.82
2022-11-03T13:38:33.844Z,78.63
2022-11-03T13:41:06.954Z,79.14
2022-11-03T13:43:35.737Z,79.55
2022-11-03T13:46:04.743Z,78.95
2022-11-03T13:51:21.463Z,81.55
2022-11-03T14:04:44.418Z,86.09
2022-11-03T14:07:13.646Z,87.47
2022-11-03T14:09:41.583Z,87.61
2022-11-03T14:12:26.688Z,86.18
2022-11-03T14:14:54.224Z,87.19
2022-11-03T14:17:21.708Z,86.81
2022-11-03T14:19:52.622Z,86.52
2022-11-03T14:22:22.220Z,87.15
2022-11-03T14:24:49.846Z,87.29
2022-11-03T14:27:18.244Z,88.06
2022-11-03T14:29:49.416Z,89.25
2022-11-03T14:32:17.895Z,89.80
2022-11-03T14:34:45.924Z,90.11
2022-11-03T14:37:13.837Z,91.50
2022-11-03T14:39:42.742Z,91.85
2022-11-03T14:42:14.919Z,93.47
2022-11-03T14:44:43.337Z,93.17
2022-11-03T14:47:12.425Z,94.14
2022-11-03T14:49:40.057Z,94.16
2022-11-03T14:52:08.573Z,95.19
2022-11-03T14:54:36.966Z,94.81
2022-11-03T14:57:06.203Z,94.93
2022-11-03T14:59:34.596Z,95.47
2022-11-03T15:02:03.292Z,95.36
2022-11-03T15:04:30.872Z,96.01
2022-11-03T15:06:58.349Z,96.59
2022-11-03T15:09:25.774Z,96.69
2022-11-03T15:11:53.225Z,96.77
2022-11-03T15:14:22.033Z,96.99
2022-11-03T15:16:49.487Z,97.36
2022-11-03T15:19:16.912Z,96.80
2022-11-03T15:21:44.333Z,97.53
2022-11-03T15:26:59.754Z,98.23
2022-11-03T15:29:28.532Z,98.27
2022-11-03T15:31:56.004Z,98.62
2022-11-03T15:34:23.548Z,98.55
2022-11-03T15:36:50.990Z,98.66
2022-11-03T15:39:18.400Z,98.83
2022-11-03T15:41:45.858Z,98.71
2022-11-03T15:44:13.346Z,98.25
2022-11-03T15:46:42.118Z,98.19
2022-11-03T15:49:09.559Z,98.32
2022-11-03T15:51:36.986Z,98.52
2022-11-03T15:54:04.732Z,98.56
2022-11-03T15:56:32.218Z,98.73
2022-11-03T15:58:59.613Z,98.68
2022-11-03T16:01:27.236Z,98.73
2022-11-03T16:03:56.133Z,98.85
2022-11-03T16:06:35.101Z,99.27
2022-11-03T16:09:11.027Z,99.68
2022-11-03T16:11:38.470Z,99.45
2022-11-03T16:14:05.878Z,99.50
2022-11-03T16:16:33.376Z,99.72
2022-11-03T16:19:02.133Z,99.52
2022-11-03T16:21:29.736Z,99.44
2022-11-03T16:23:57.145Z,99.55
2022-11-03T16:26:24.603Z,99.61
2022-11-03T16:28:52.062Z,99.24
2022-11-03T16:31:19.486Z,99.84
2022-11-03T16:33:46.925Z,99.72
2022-11-03T16:36:16.093Z,100.00
2022-11-03T16:38:43.524Z,100.00
2022-11-03T16:41:11.344Z,100.00
2022-11-03T16:43:38.888Z,100.00
2022-11-03T16:46:06.633Z,99.63
2022-11-03T16:48:34.076Z,99.56
2022-11-03T16:51:01.482Z,99.49
2022-11-03T16:53:30.270Z,99.55
2022-11-03T16:55:57.718Z,99.61
2022-11-03T16:58:25.369Z,99.54
2022-11-03T17:00:52.814Z,99.26
2022-11-03T17:03:20.294Z,98.97
2022-11-03T17:05:47.749Z,99.35
2022-11-03T17:08:46.275Z,99.27
2022-11-03T17:11:03.971Z,99.55
2022-11-03T17:13:31.390Z,99.52
2022-11-03T17:15:58.836Z,99.62
2022-11-03T17:18:26.286Z,99.32
2022-11-03T17:20:53.785Z,99.85
2022-11-03T17:23:21.233Z,99.60
2022-11-03T17:25:48.802Z,99.57
2022-11-03T17:28:19.015Z,99.75
2022-11-03T17:30:46.546Z,99.50
2022-11-03T17:33:17.950Z,99.79
2022-11-03T17:35:46.518Z,99.79
2022-11-03T17:38:16.267Z,99.94
2022-11-03T17:40:46.172Z,99.88
2022-11-03T17:43:22.608Z,100.00
2022-11-03T17:45:50.395Z,100.00
2022-11-03T17:48:18.105Z,100.00
2022-11-03T17:50:47.437Z,100.00
2022-11-03T17:53:22.189Z,100.00
2022-11-03T17:56:03.002Z,100.00
2022-11-03T17:58:46.324Z,100.00
2022-11-03T18:01:20.180Z,100.00
2022-11-03T18:03:47.761Z,100.00
2022-11-03T18:06:19.209Z,100.00
2022-11-03T18:08:47.453Z,100.00
2022-11-03T18:11:33.372Z,100.00
2022-11-03T18:14:03.475Z,100.00
2022-11-03T18:16:32.380Z,100.00
2022-11-03T18:18:59.826Z,100.00
2022-11-03T18:21:29.401Z,100.00
2022-11-03T18:23:56.899Z,100.00
2022-11-03T18:26:26.360Z,100.00
2022-11-03T18:28:54.308Z,100.00
2022-11-03T18:31:25.488Z,100.00
2022-11-03T18:33:53.960Z,100.00
2022-11-03T18:36:21.943Z,100.00
2022-11-03T18:38:49.854Z,100.00
2022-11-03T18:41:40.249Z,100.00
2022-11-03T18:44:14.882Z,100.00
2022-11-03T18:46:44.050Z,100.00
2022-11-03T18:49:11.559Z,100.00
2022-11-03T18:51:39.693Z,100.00
2022-11-03T18:54:09.500Z,100.00
2022-11-03T18:56:38.275Z,100.00
2022-11-03T18:59:06.217Z,100.00
2022-11-03T19:01:33.854Z,100.00
2022-11-03T19:04:02.733Z,100.00
2022-11-03T19:06:30.189Z,100.00
2022-11-03T19:09:00.285Z,99.72
2022-11-03T19:11:28.082Z,99.61
2022-11-03T19:13:55.836Z,99.67
2022-11-03T19:16:25.014Z,99.54
2022-11-03T19:18:53.223Z,98.81
2022-11-03T19:21:24.265Z,99.28
2022-11-03T19:23:58.041Z,99.18
2022-11-03T19:26:29.548Z,99.02
2022-11-03T19:29:00.689Z,98.17
2022-11-03T19:31:35.260Z,97.85
2022-11-03T19:34:03.477Z,97.73
2022-11-03T19:36:32.523Z,97.16
2022-11-03T19:39:00.939Z,97.42
2022-11-03T19:41:46.138Z,97.43
2022-11-03T19:44:14.214Z,97.50
2022-11-03T19:46:42.599Z,97.25
2022-11-03T19:49:13.906Z,97.45
2022-11-03T19:51:42.736Z,97.43
2022-11-03T19:54:16.396Z,97.74
2022-11-03T19:56:43.891Z,98.08
2022-11-03T19:59:13.140Z,97.78
2022-11-03T20:01:40.921Z,97.80
2022-11-03T20:04:09.213Z,98.27
2022-11-03T20:06:38.203Z,98.80
2022-11-03T20:09:08.449Z,98.75
2022-11-03T20:11:36.472Z,98.92
2022-11-03T20:14:04.972Z,99.27
2022-11-03T20:16:32.459Z,99.28
2022-11-03T20:18:59.930Z,99.06
2022-11-03T20:21:34.052Z,98.94
2022-11-03T20:24:02.242Z,98.41
2022-11-03T20:26:31.321Z,98.40
2022-11-03T20:28:59.744Z,98.14
2022-11-03T20:31:27.207Z,98.39
2022-11-03T20:33:54.718Z,98.13
2022-11-03T20:36:22.235Z,98.29
2022-11-03T20:38:52.484Z,98.20
2022-11-03T20:41:20.323Z,97.96
2022-11-03T20:43:49.603Z,97.90
2022-11-03T20:46:25.413Z,97.96
2022-11-03T20:48:55.129Z,97.77
2022-11-03T20:51:24.518Z,97.67
2022-11-03T20:53:52.937Z,97.36
2022-11-03T20:56:22.243Z,96.63
2022-11-03T20:58:51.659Z,96.20
2022-11-03T21:01:21.352Z,96.56
2022-11-03T21:04:04.369Z,96.81
2022-11-03T21:06:33.328Z,96.71
2022-11-03T21:09:01.687Z,95.99
2022-11-03T21:11:35.091Z,96.02
2022-11-03T21:14:13.086Z,96.01
2022-11-03T21:16:58.550Z,96.09
2022-11-03T21:19:46.220Z,96.24
2022-11-03T21:22:51.436Z,96.13
2022-11-03T21:25:05.143Z,95.74
2022-11-03T21:27:33.166Z,95.15
2022-11-03T21:30:02.686Z,95.40
2022-11-03T21:32:30.134Z,95.31
2022-11-03T21:34:58.591Z,95.00
2022-11-03T21:37:26.027Z,94.86
2022-11-03T21:39:53.466Z,95.43
2022-11-03T21:42:38.498Z,95.13
2022-11-03T21:45:08.471Z,95.34
2022-11-03T21:47:35.940Z,95.67
2022-11-03T21:50:02.980Z,96.18
2022-11-03T21:52:33.731Z,96.98
2022-11-03T21:55:02.005Z,97.66
2022-11-03T21:57:29.825Z,97.98
2022-11-03T21:59:58.681Z,98.22
2022-11-03T22:02:29.991Z,98.32
2022-11-03T22:04:58.496Z,97.96
2022-11-03T22:07:25.934Z,98.39
2022-11-03T22:09:53.417Z,98.22
2022-11-03T22:12:20.855Z,98.35
2022-11-03T22:15:06.117Z,98.05
2022-11-03T22:17:35.214Z,96.90
2022-11-03T22:20:31.873Z,95.98
2022-11-03T22:23:18.778Z,94.86
2022-11-03T22:26:05.139Z,94.81
2022-11-03T22:28:32.602Z,94.31
2022-11-03T22:31:17.535Z,94.27
2022-11-03T22:34:00.257Z,94.16
2022-11-03T22:36:28.401Z,94.78
2022-11-03T22:39:13.439Z,94.96
2022-11-03T22:42:03.405Z,96.56
2022-11-03T22:45:02.443Z,97.03
2022-11-03T22:47:29.939Z,93.96
2022-11-03T22:49:58.705Z,94.68
2022-11-03T22:52:26.168Z,93.77
2022-11-03T22:54:52.624Z,92.29
2022-11-03T22:57:20.056Z,92.35
2022-11-03T22:59:47.510Z,92.66
2022-11-03T23:02:14.999Z,92.83
2022-11-03T23:04:42.501Z,92.92
2022-11-03T23:07:11.275Z,93.46
2022-11-03T23:09:38.714Z,93.74
2022-11-03T23:12:06.488Z,93.87
2022-11-03T23:14:47.854Z,93.92
2022-11-03T23:17:15.337Z,94.21
2022-11-03T23:20:00.558Z,94.57
2022-11-03T23:22:29.349Z,94.68
2022-11-03T23:25:01.597Z,94.76
2022-11-03T23:27:29.259Z,94.41
2022-11-03T23:29:56.781Z,94.63
2022-11-03T23:32:24.221Z,94.77
2022-11-03T23:34:51.849Z,94.92
2022-11-03T23:37:19.283Z,95.16
2022-11-03T23:39:48.050Z,95.09
2022-11-03T23:42:15.465Z,94.78
2022-11-03T23:44:56.862Z,95.27
2022-11-03T23:47:41.463Z,95.05
2022-11-03T23:50:09.468Z,94.43
2022-11-03T23:52:36.958Z,94.71
2022-11-03T23:55:07.299Z,93.95
2022-11-03T23:57:52.224Z,93.57
